Glen Mary, Tennessee
Current Conditions -  °F | °C
As of 9:53 PM on Friday 21 Nov 2014 (Local Time) from KOQT Reporting Station
Clear Clear  
Wind Chill: 32°   Ceiling: Unl
Heat Index: 32°   Visibility: 10mi
Dew Point: 23°   Wind: 0mph
Humidity: 69%   Direction: NA
Pressure: 30.45"   Gusts: NA
Location:  36.3261°N, 84.5712°W
Report Text: KOQT 220253Z AUTO 00000KT 10SM CLR 00/M05 A3045 RMK AO2 SLP324 T00001050 53004
Loading
Personal Weather Stations






























Interactive Weather Map New forecast layout! Learn more

10-Day Weather Forecast

Advertisements
Track Severe Weather on mobile